sensor_id;sensor_type;location;lat;lon;timestamp;temperature;humidity
18898;DHT22;9581;49.484;8.556;2023-03-31T00:00:37;12.80;99.90
18898;DHT22;9581;49.484;8.556;2023-03-31T00:03:06;12.80;99.90
18898;DHT22;9581;49.484;8.556;2023-03-31T00:05:36;12.80;99.90
18898;DHT22;9581;49.484;8.556;2023-03-31T00:08:04;12.70;99.90
18898;DHT22;9581;49.484;8.556;2023-03-31T00:10:33;12.70;99.90
18898;DHT22;9581;49.484;8.556;2023-03-31T00:13:01;12.80;99.90
18898;DHT22;9581;49.484;8.556;2023-03-31T00:15:27;12.70;99.90
18898;DHT22;9581;49.484;8.556;2023-03-31T00:17:56;12.70;99.90
18898;DHT22;9581;49.484;8.556;2023-03-31T00:20:24;12.80;99.90
18898;DHT22;9581;49.484;8.556;2023-03-31T00:22:53;12.80;99.90
18898;DHT22;9581;49.484;8.556;2023-03-31T00:25:22;12.70;99.90
18898;DHT22;9581;49.484;8.556;2023-03-31T00:27:49;12.80;99.90
18898;DHT22;9581;49.484;8.556;2023-03-31T00:30:17;12.70;99.90
18898;DHT22;9581;49.484;8.556;2023-03-31T00:32:45;12.70;99.90
18898;DHT22;9581;49.484;8.556;2023-03-31T00:35:11;12.70;99.90
18898;DHT22;9581;49.484;8.556;2023-03-31T00:37:38;12.70;99.90
18898;DHT22;9581;49.484;8.556;2023-03-31T00:40:10;12.70;99.90
18898;DHT22;9581;49.484;8.556;2023-03-31T00:42:40;12.70;99.90
18898;DHT22;9581;49.484;8.556;2023-03-31T00:45:27;12.60;99.90
18898;DHT22;9581;49.484;8.556;2023-03-31T00:47:57;12.60;99.90
18898;DHT22;9581;49.484;8.556;2023-03-31T00:50:31;12.70;99.90
18898;DHT22;9581;49.484;8.556;2023-03-31T00:53:02;12.60;99.90
18898;DHT22;9581;49.484;8.556;2023-03-31T00:55:34;12.60;99.90
18898;DHT22;9581;49.484;8.556;2023-03-31T00:58:05;12.70;99.90
18898;DHT22;9581;49.484;8.556;2023-03-31T01:00:32;12.70;99.90
18898;DHT22;9581;49.484;8.556;2023-03-31T01:03:02;12.60;99.90
18898;DHT22;9581;49.484;8.556;2023-03-31T01:05:33;12.50;99.90
18898;DHT22;9581;49.484;8.556;2023-03-31T01:08:03;12.60;99.90
18898;DHT22;9581;49.484;8.556;2023-03-31T01:10:37;12.70;99.90
18898;DHT22;9581;49.484;8.556;2023-03-31T01:13:07;12.60;99.90
18898;DHT22;9581;49.484;8.556;2023-03-31T01:15:35;12.70;99.90
18898;DHT22;9581;49.484;8.556;2023-03-31T01:18:03;12.70;99.90
18898;DHT22;9581;49.484;8.556;2023-03-31T01:20:35;12.60;99.90
18898;DHT22;9581;49.484;8.556;2023-03-31T01:23:40;12.70;99.90
18898;DHT22;9581;49.484;8.556;2023-03-31T01:26:35;12.70;99.90
18898;DHT22;9581;49.484;8.556;2023-03-31T01:29:14;12.70;99.90
18898;DHT22;9581;49.484;8.556;2023-03-31T01:32:04;12.60;99.90
18898;DHT22;9581;49.484;8.556;2023-03-31T01:35:14;12.60;99.90
18898;DHT22;9581;49.484;8.556;2023-03-31T01:38:12;12.60;99.90
18898;DHT22;9581;49.484;8.556;2023-03-31T01:43:46;12.60;99.90
18898;DHT22;9581;49.484;8.556;2023-03-31T01:46:22;12.50;99.90
18898;DHT22;9581;49.484;8.556;2023-03-31T01:48:59;12.50;99.90
18898;DHT22;9581;49.484;8.556;2023-03-31T01:51:32;12.60;99.90
18898;DHT22;9581;49.484;8.556;2023-03-31T01:54:07;12.40;99.90
18898;DHT22;9581;49.484;8.556;2023-03-31T01:56:41;12.40;99.90
18898;DHT22;9581;49.484;8.556;2023-03-31T01:59:14;12.50;99.90
18898;DHT22;9581;49.484;8.556;2023-03-31T02:01:48;12.50;99.90
18898;DHT22;9581;49.484;8.556;2023-03-31T02:04:20;12.50;99.90
18898;DHT22;9581;49.484;8.556;2023-03-31T02:06:53;12.50;99.90
18898;DHT22;9581;49.484;8.556;2023-03-31T02:09:24;12.60;99.90
18898;DHT22;9581;49.484;8.556;2023-03-31T02:11:54;12.60;99.90
18898;DHT22;9581;49.484;8.556;2023-03-31T02:14:26;12.60;99.90
18898;DHT22;9581;49.484;8.556;2023-03-31T02:16:57;12.80;99.90
18898;DHT22;9581;49.484;8.556;2023-03-31T02:19:30;12.70;99.90
18898;DHT22;9581;49.484;8.556;2023-03-31T02:21:58;12.60;99.90
18898;DHT22;9581;49.484;8.556;2023-03-31T02:24:27;12.70;99.90
18898;DHT22;9581;49.484;8.556;2023-03-31T02:27:02;12.70;99.90
18898;DHT22;9581;49.484;8.556;2023-03-31T02:29:31;12.60;99.90
18898;DHT22;9581;49.484;8.556;2023-03-31T02:32:03;12.70;99.90
18898;DHT22;9581;49.484;8.556;2023-03-31T02:34:34;12.60;99.90
18898;DHT22;9581;49.484;8.556;2023-03-31T02:37:02;12.50;99.90
18898;DHT22;9581;49.484;8.556;2023-03-31T02:39:33;12.60;99.90
18898;DHT22;9581;49.484;8.556;2023-03-31T02:42:02;12.70;99.90
18898;DHT22;9581;49.484;8.556;2023-03-31T02:44:32;12.50;99.90
18898;DHT22;9581;49.484;8.556;2023-03-31T02:46:58;12.60;99.90
18898;DHT22;9581;49.484;8.556;2023-03-31T02:49:25;12.80;99.90
18898;DHT22;9581;49.484;8.556;2023-03-31T02:52:18;12.80;99.90
18898;DHT22;9581;49.484;8.556;2023-03-31T02:55:00;12.90;99.90
18898;DHT22;9581;49.484;8.556;2023-03-31T02:58:04;12.80;99.90
18898;DHT22;9581;49.484;8.556;2023-03-31T03:00:43;12.80;99.90
18898;DHT22;9581;49.484;8.556;2023-03-31T03:03:27;12.80;99.90
18898;DHT22;9581;49.484;8.556;2023-03-31T03:06:02;12.80;99.90
18898;DHT22;9581;49.484;8.556;2023-03-31T03:08:42;12.80;99.90
18898;DHT22;9581;49.484;8.556;2023-03-31T03:11:18;12.90;99.90
18898;DHT22;9581;49.484;8.556;2023-03-31T03:13:51;12.90;99.90
18898;DHT22;9581;49.484;8.556;2023-03-31T03:16:22;12.80;99.90
18898;DHT22;9581;49.484;8.556;2023-03-31T03:18:55;12.90;99.90
18898;DHT22;9581;49.484;8.556;2023-03-31T03:21:22;12.80;99.90
18898;DHT22;9581;49.484;8.556;2023-03-31T03:23:49;12.80;99.90
18898;DHT22;9581;49.484;8.556;2023-03-31T03:26:17;12.80;99.90
18898;DHT22;9581;49.484;8.556;2023-03-31T03:28:46;12.80;99.90
18898;DHT22;9581;49.484;8.556;2023-03-31T03:31:15;12.70;99.90
18898;DHT22;9581;49.484;8.556;2023-03-31T03:33:42;12.80;99.90
18898;DHT22;9581;49.484;8.556;2023-03-31T03:36:09;12.80;99.90
18898;DHT22;9581;49.484;8.556;2023-03-31T03:38:36;12.80;99.90
18898;DHT22;9581;49.484;8.556;2023-03-31T03:41:03;12.80;99.90
18898;DHT22;9581;49.484;8.556;2023-03-31T03:43:30;12.80;99.90
18898;DHT22;9581;49.484;8.556;2023-03-31T03:45:57;12.80;99.90
18898;DHT22;9581;49.484;8.556;2023-03-31T03:48:25;12.70;99.90
18898;DHT22;9581;49.484;8.556;2023-03-31T03:50:52;12.70;99.90
18898;DHT22;9581;49.484;8.556;2023-03-31T03:53:19;12.60;99.90
18898;DHT22;9581;49.484;8.556;2023-03-31T03:55:46;12.50;99.90
18898;DHT22;9581;49.484;8.556;2023-03-31T03:58:14;12.40;99.90
18898;DHT22;9581;49.484;8.556;2023-03-31T04:00:41;12.40;99.90
18898;DHT22;9581;49.484;8.556;2023-03-31T04:03:09;12.40;99.90
18898;DHT22;9581;49.484;8.556;2023-03-31T04:05:38;12.30;99.90
18898;DHT22;9581;49.484;8.556;2023-03-31T04:08:05;12.40;99.90
18898;DHT22;9581;49.484;8.556;2023-03-31T04:10:33;12.50;99.90
18898;DHT22;9581;49.484;8.556;2023-03-31T04:13:00;12.50;99.90
18898;DHT22;9581;49.484;8.556;2023-03-31T04:15:28;12.60;99.90
18898;DHT22;9581;49.484;8.556;2023-03-31T04:17:55;12.50;99.90
18898;DHT22;9581;49.484;8.556;2023-03-31T04:20:22;12.50;99.90
18898;DHT22;9581;49.484;8.556;2023-03-31T04:22:53;12.40;99.90
18898;DHT22;9581;49.484;8.556;2023-03-31T04:25:20;12.30;99.90
18898;DHT22;9581;49.484;8.556;2023-03-31T04:27:49;12.30;99.90
18898;DHT22;9581;49.484;8.556;2023-03-31T04:30:19;12.40;99.90
18898;DHT22;9581;49.484;8.556;2023-03-31T04:32:49;12.40;99.90
18898;DHT22;9581;49.484;8.556;2023-03-31T04:35:16;12.30;99.90
18898;DHT22;9581;49.484;8.556;2023-03-31T04:37:45;12.30;99.90
18898;DHT22;9581;49.484;8.556;2023-03-31T04:40:14;12.20;99.90
18898;DHT22;9581;49.484;8.556;2023-03-31T04:42:41;12.30;99.90
18898;DHT22;9581;49.484;8.556;2023-03-31T04:45:08;12.20;99.90
18898;DHT22;9581;49.484;8.556;2023-03-31T04:47:35;12.20;99.90
18898;DHT22;9581;49.484;8.556;2023-03-31T04:50:03;12.20;99.90
18898;DHT22;9581;49.484;8.556;2023-03-31T04:52:30;12.20;99.90
18898;DHT22;9581;49.484;8.556;2023-03-31T04:54:57;12.20;99.90
18898;DHT22;9581;49.484;8.556;2023-03-31T04:57:25;12.10;99.90
18898;DHT22;9581;49.484;8.556;2023-03-31T04:59:51;12.10;99.90
18898;DHT22;9581;49.484;8.556;2023-03-31T05:02:18;12.00;99.90
18898;DHT22;9581;49.484;8.556;2023-03-31T05:04:48;12.10;99.90
18898;DHT22;9581;49.484;8.556;2023-03-31T05:07:16;12.10;99.90
18898;DHT22;9581;49.484;8.556;2023-03-31T05:09:43;12.00;99.90
18898;DHT22;9581;49.484;8.556;2023-03-31T05:12:10;12.10;99.90
18898;DHT22;9581;49.484;8.556;2023-03-31T05:14:39;12.10;99.90
18898;DHT22;9581;49.484;8.556;2023-03-31T05:17:06;12.10;99.90
18898;DHT22;9581;49.484;8.556;2023-03-31T05:19:33;12.00;99.90
18898;DHT22;9581;49.484;8.556;2023-03-31T05:21:59;11.90;99.90
18898;DHT22;9581;49.484;8.556;2023-03-31T05:24:26;12.00;99.90
18898;DHT22;9581;49.484;8.556;2023-03-31T05:26:54;12.00;99.90
18898;DHT22;9581;49.484;8.556;2023-03-31T05:29:22;11.90;99.90
18898;DHT22;9581;49.484;8.556;2023-03-31T05:31:50;11.90;99.90
18898;DHT22;9581;49.484;8.556;2023-03-31T05:34:18;12.00;99.90
18898;DHT22;9581;49.484;8.556;2023-03-31T05:36:45;11.90;99.90
18898;DHT22;9581;49.484;8.556;2023-03-31T05:39:15;11.90;99.90
18898;DHT22;9581;49.484;8.556;2023-03-31T05:41:43;11.80;99.90
18898;DHT22;9581;49.484;8.556;2023-03-31T05:44:10;11.80;99.90
18898;DHT22;9581;49.484;8.556;2023-03-31T05:46:37;11.80;99.90
18898;DHT22;9581;49.484;8.556;2023-03-31T05:49:05;11.70;99.90
18898;DHT22;9581;49.484;8.556;2023-03-31T05:51:32;11.80;99.90
18898;DHT22;9581;49.484;8.556;2023-03-31T05:53:59;11.70;99.90
18898;DHT22;9581;49.484;8.556;2023-03-31T05:56:26;11.60;99.90
18898;DHT22;9581;49.484;8.556;2023-03-31T05:58:53;11.70;99.90
18898;DHT22;9581;49.484;8.556;2023-03-31T06:01:20;11.60;99.90
18898;DHT22;9581;49.484;8.556;2023-03-31T06:03:48;11.60;99.90
18898;DHT22;9581;49.484;8.556;2023-03-31T06:06:16;11.60;99.90
18898;DHT22;9581;49.484;8.556;2023-03-31T06:08:45;11.60;99.90
18898;DHT22;9581;49.484;8.556;2023-03-31T06:11:14;11.60;99.90
18898;DHT22;9581;49.484;8.556;2023-03-31T06:13:42;11.60;99.90
18898;DHT22;9581;49.484;8.556;2023-03-31T06:16:10;11.60;99.90
18898;DHT22;9581;49.484;8.556;2023-03-31T06:18:38;11.60;99.90
18898;DHT22;9581;49.484;8.556;2023-03-31T06:21:06;11.50;99.90
18898;DHT22;9581;49.484;8.556;2023-03-31T06:23:35;11.60;99.90
18898;DHT22;9581;49.484;8.556;2023-03-31T06:26:04;11.50;99.90
18898;DHT22;9581;49.484;8.556;2023-03-31T06:28:31;11.50;99.90
18898;DHT22;9581;49.484;8.556;2023-03-31T06:31:03;11.60;99.90
18898;DHT22;9581;49.484;8.556;2023-03-31T06:33:30;11.60;99.90
18898;DHT22;9581;49.484;8.556;2023-03-31T06:35:58;11.50;99.90
18898;DHT22;9581;49.484;8.556;2023-03-31T06:38:26;11.50;99.90
18898;DHT22;9581;49.484;8.556;2023-03-31T06:40:55;11.50;99.90
18898;DHT22;9581;49.484;8.556;2023-03-31T06:43:22;11.40;99.90
18898;DHT22;9581;49.484;8.556;2023-03-31T06:45:49;11.40;99.90
18898;DHT22;9581;49.484;8.556;2023-03-31T06:48:16;11.50;99.90
18898;DHT22;9581;49.484;8.556;2023-03-31T06:50:43;11.40;99.90
18898;DHT22;9581;49.484;8.556;2023-03-31T06:53:10;11.50;99.90
18898;DHT22;9581;49.484;8.556;2023-03-31T06:55:37;11.50;99.90
18898;DHT22;9581;49.484;8.556;2023-03-31T06:58:05;11.60;99.90
18898;DHT22;9581;49.484;8.556;2023-03-31T07:00:32;11.60;99.90
18898;DHT22;9581;49.484;8.556;2023-03-31T07:02:59;11.60;99.90
18898;DHT22;9581;49.484;8.556;2023-03-31T07:05:29;11.60;99.90
18898;DHT22;9581;49.484;8.556;2023-03-31T07:07:57;11.60;99.90
18898;DHT22;9581;49.484;8.556;2023-03-31T07:10:26;11.60;99.90
18898;DHT22;9581;49.484;8.556;2023-03-31T07:12:53;11.60;99.90
18898;DHT22;9581;49.484;8.556;2023-03-31T07:15:21;11.70;99.90
18898;DHT22;9581;49.484;8.556;2023-03-31T07:17:48;11.70;99.90
18898;DHT22;9581;49.484;8.556;2023-03-31T07:20:17;11.70;99.90
18898;DHT22;9581;49.484;8.556;2023-03-31T07:22:45;11.60;99.90
18898;DHT22;9581;49.484;8.556;2023-03-31T07:25:14;11.60;99.90
18898;DHT22;9581;49.484;8.556;2023-03-31T07:27:42;11.60;99.90
18898;DHT22;9581;49.484;8.556;2023-03-31T07:30:11;11.70;99.90
18898;DHT22;9581;49.484;8.556;2023-03-31T07:32:40;11.80;99.90
18898;DHT22;9581;49.484;8.556;2023-03-31T07:35:07;11.80;99.90
18898;DHT22;9581;49.484;8.556;2023-03-31T07:37:35;11.80;99.90
18898;DHT22;9581;49.484;8.556;2023-03-31T07:40:02;11.80;99.90
18898;DHT22;9581;49.484;8.556;2023-03-31T07:42:30;11.90;99.90
18898;DHT22;9581;49.484;8.556;2023-03-31T07:44:56;11.90;99.90
18898;DHT22;9581;49.484;8.556;2023-03-31T07:47:24;11.90;99.90
18898;DHT22;9581;49.484;8.556;2023-03-31T07:49:52;11.80;99.90
18898;DHT22;9581;49.484;8.556;2023-03-31T07:52:19;11.90;99.90
18898;DHT22;9581;49.484;8.556;2023-03-31T07:54:46;12.00;99.90
18898;DHT22;9581;49.484;8.556;2023-03-31T07:57:13;12.20;99.90
18898;DHT22;9581;49.484;8.556;2023-03-31T07:59:41;12.10;99.90
18898;DHT22;9581;49.484;8.556;2023-03-31T08:02:10;11.90;99.90
18898;DHT22;9581;49.484;8.556;2023-03-31T08:04:38;12.00;99.90
18898;DHT22;9581;49.484;8.556;2023-03-31T08:07:07;12.00;99.90
18898;DHT22;9581;49.484;8.556;2023-03-31T08:09:35;11.90;99.90
18898;DHT22;9581;49.484;8.556;2023-03-31T08:12:02;11.90;99.90
18898;DHT22;9581;49.484;8.556;2023-03-31T08:14:28;11.60;99.90
18898;DHT22;9581;49.484;8.556;2023-03-31T08:16:55;11.70;99.90
18898;DHT22;9581;49.484;8.556;2023-03-31T08:19:22;11.60;99.90
18898;DHT22;9581;49.484;8.556;2023-03-31T08:21:49;11.70;99.90
18898;DHT22;9581;49.484;8.556;2023-03-31T08:24:18;11.80;99.90
18898;DHT22;9581;49.484;8.556;2023-03-31T08:26:45;12.00;99.90
18898;DHT22;9581;49.484;8.556;2023-03-31T08:29:12;12.00;99.90
18898;DHT22;9581;49.484;8.556;2023-03-31T08:31:39;12.30;99.90
18898;DHT22;9581;49.484;8.556;2023-03-31T08:34:06;12.30;99.90
18898;DHT22;9581;49.484;8.556;2023-03-31T08:36:33;12.30;99.90
18898;DHT22;9581;49.484;8.556;2023-03-31T08:39:00;12.30;99.90
18898;DHT22;9581;49.484;8.556;2023-03-31T08:41:40;12.30;99.90
18898;DHT22;9581;49.484;8.556;2023-03-31T08:44:12;12.40;99.90
18898;DHT22;9581;49.484;8.556;2023-03-31T08:46:41;12.40;99.90
18898;DHT22;9581;49.484;8.556;2023-03-31T08:49:13;12.70;99.90
18898;DHT22;9581;49.484;8.556;2023-03-31T08:51:44;13.20;99.90
18898;DHT22;9581;49.484;8.556;2023-03-31T08:54:16;13.30;99.90
18898;DHT22;9581;49.484;8.556;2023-03-31T08:56:47;13.50;99.90
18898;DHT22;9581;49.484;8.556;2023-03-31T08:59:19;13.40;99.90
18898;DHT22;9581;49.484;8.556;2023-03-31T09:01:51;13.20;99.90
18898;DHT22;9581;49.484;8.556;2023-03-31T09:04:36;13.10;99.90
18898;DHT22;9581;49.484;8.556;2023-03-31T09:07:14;13.00;99.90
18898;DHT22;9581;49.484;8.556;2023-03-31T09:09:48;13.10;99.90
18898;DHT22;9581;49.484;8.556;2023-03-31T09:12:21;13.00;99.90
18898;DHT22;9581;49.484;8.556;2023-03-31T09:14:51;13.00;99.90
18898;DHT22;9581;49.484;8.556;2023-03-31T09:17:24;13.10;99.90
18898;DHT22;9581;49.484;8.556;2023-03-31T09:19:54;13.00;99.90
18898;DHT22;9581;49.484;8.556;2023-03-31T09:22:25;12.80;99.90
18898;DHT22;9581;49.484;8.556;2023-03-31T09:24:58;12.70;99.90
18898;DHT22;9581;49.484;8.556;2023-03-31T09:27:29;12.60;99.90
18898;DHT22;9581;49.484;8.556;2023-03-31T09:30:02;12.40;99.90
18898;DHT22;9581;49.484;8.556;2023-03-31T09:32:31;12.40;99.90
18898;DHT22;9581;49.484;8.556;2023-03-31T09:34:59;12.40;99.90
18898;DHT22;9581;49.484;8.556;2023-03-31T09:37:30;12.20;99.90
18898;DHT22;9581;49.484;8.556;2023-03-31T09:39:59;12.20;99.90
18898;DHT22;9581;49.484;8.556;2023-03-31T09:42:27;12.30;99.90
18898;DHT22;9581;49.484;8.556;2023-03-31T09:44:54;12.20;99.90
18898;DHT22;9581;49.484;8.556;2023-03-31T09:47:30;12.30;99.90
18898;DHT22;9581;49.484;8.556;2023-03-31T09:49:57;12.30;99.90
18898;DHT22;9581;49.484;8.556;2023-03-31T09:52:28;12.00;99.90
18898;DHT22;9581;49.484;8.556;2023-03-31T09:54:57;11.70;99.90
18898;DHT22;9581;49.484;8.556;2023-03-31T09:57:28;11.80;99.90
18898;DHT22;9581;49.484;8.556;2023-03-31T10:00:02;11.60;99.90
18898;DHT22;9581;49.484;8.556;2023-03-31T10:02:38;11.60;99.90
18898;DHT22;9581;49.484;8.556;2023-03-31T10:05:28;11.70;99.90
18898;DHT22;9581;49.484;8.556;2023-03-31T10:08:13;12.00;99.90
18898;DHT22;9581;49.484;8.556;2023-03-31T10:10:47;12.00;99.90
18898;DHT22;9581;49.484;8.556;2023-03-31T10:13:18;12.10;99.90
18898;DHT22;9581;49.484;8.556;2023-03-31T10:15:46;12.30;99.90
18898;DHT22;9581;49.484;8.556;2023-03-31T10:18:13;12.40;99.90
18898;DHT22;9581;49.484;8.556;2023-03-31T10:20:43;12.60;99.90
18898;DHT22;9581;49.484;8.556;2023-03-31T10:23:16;12.80;99.90
18898;DHT22;9581;49.484;8.556;2023-03-31T10:25:44;12.80;99.90
18898;DHT22;9581;49.484;8.556;2023-03-31T10:28:16;12.80;99.90
18898;DHT22;9581;49.484;8.556;2023-03-31T10:30:47;12.80;99.90
18898;DHT22;9581;49.484;8.556;2023-03-31T10:33:18;12.60;99.90
18898;DHT22;9581;49.484;8.556;2023-03-31T10:35:47;12.40;99.90
18898;DHT22;9581;49.484;8.556;2023-03-31T10:38:18;12.70;99.90
18898;DHT22;9581;49.484;8.556;2023-03-31T10:40:50;12.50;99.90
18898;DHT22;9581;49.484;8.556;2023-03-31T10:43:23;12.60;99.90
18898;DHT22;9581;49.484;8.556;2023-03-31T10:45:52;12.90;99.90
18898;DHT22;9581;49.484;8.556;2023-03-31T10:48:23;12.80;99.90
18898;DHT22;9581;49.484;8.556;2023-03-31T10:50:51;12.70;99.90
18898;DHT22;9581;49.484;8.556;2023-03-31T10:53:18;12.80;99.90
18898;DHT22;9581;49.484;8.556;2023-03-31T10:55:55;12.60;99.90
18898;DHT22;9581;49.484;8.556;2023-03-31T10:58:37;12.60;99.90
18898;DHT22;9581;49.484;8.556;2023-03-31T11:01:13;12.60;99.90
18898;DHT22;9581;49.484;8.556;2023-03-31T11:04:04;12.60;99.90
18898;DHT22;9581;49.484;8.556;2023-03-31T11:06:48;12.30;99.90
18898;DHT22;9581;49.484;8.556;2023-03-31T11:09:30;11.90;99.90
18898;DHT22;9581;49.484;8.556;2023-03-31T11:12:07;11.90;99.90
18898;DHT22;9581;49.484;8.556;2023-03-31T11:14:48;12.20;99.90
18898;DHT22;9581;49.484;8.556;2023-03-31T11:17:30;12.60;99.90
18898;DHT22;9581;49.484;8.556;2023-03-31T11:20:07;12.60;99.90
18898;DHT22;9581;49.484;8.556;2023-03-31T11:22:43;12.60;99.90
18898;DHT22;9581;49.484;8.556;2023-03-31T11:25:33;12.30;99.90
18898;DHT22;9581;49.484;8.556;2023-03-31T11:28:28;12.50;99.90
18898;DHT22;9581;49.484;8.556;2023-03-31T11:31:07;12.60;99.90
18898;DHT22;9581;49.484;8.556;2023-03-31T11:33:49;12.60;99.90
18898;DHT22;9581;49.484;8.556;2023-03-31T11:36:29;12.50;99.90
18898;DHT22;9581;49.484;8.556;2023-03-31T11:39:23;12.50;99.90
18898;DHT22;9581;49.484;8.556;2023-03-31T11:41:54;12.80;99.90
18898;DHT22;9581;49.484;8.556;2023-03-31T11:44:34;12.80;99.90
18898;DHT22;9581;49.484;8.556;2023-03-31T11:47:06;13.20;99.90
18898;DHT22;9581;49.484;8.556;2023-03-31T11:49:37;13.40;99.90
18898;DHT22;9581;49.484;8.556;2023-03-31T11:52:11;13.70;99.90
18898;DHT22;9581;49.484;8.556;2023-03-31T11:54:42;13.70;99.90
18898;DHT22;9581;49.484;8.556;2023-03-31T11:57:14;13.60;99.90
18898;DHT22;9581;49.484;8.556;2023-03-31T11:59:43;13.50;99.90
18898;DHT22;9581;49.484;8.556;2023-03-31T12:02:14;13.40;99.90
18898;DHT22;9581;49.484;8.556;2023-03-31T12:04:44;13.30;99.90
18898;DHT22;9581;49.484;8.556;2023-03-31T12:07:21;13.10;99.90
18898;DHT22;9581;49.484;8.556;2023-03-31T12:09:53;12.80;99.90
18898;DHT22;9581;49.484;8.556;2023-03-31T12:12:24;12.90;99.90
18898;DHT22;9581;49.484;8.556;2023-03-31T12:14:56;12.20;99.90
18898;DHT22;9581;49.484;8.556;2023-03-31T12:17:28;12.40;99.90
18898;DHT22;9581;49.484;8.556;2023-03-31T12:19:57;12.70;99.90
18898;DHT22;9581;49.484;8.556;2023-03-31T12:22:27;12.80;99.90
18898;DHT22;9581;49.484;8.556;2023-03-31T12:24:55;13.00;99.90
18898;DHT22;9581;49.484;8.556;2023-03-31T12:27:24;13.10;99.90
18898;DHT22;9581;49.484;8.556;2023-03-31T12:29:56;13.30;99.90
18898;DHT22;9581;49.484;8.556;2023-03-31T12:32:27;13.30;99.90
18898;DHT22;9581;49.484;8.556;2023-03-31T12:34:58;13.40;99.90
18898;DHT22;9581;49.484;8.556;2023-03-31T12:37:57;13.40;99.90
18898;DHT22;9581;49.484;8.556;2023-03-31T12:40:35;13.50;99.90
18898;DHT22;9581;49.484;8.556;2023-03-31T12:43:24;13.80;99.90
18898;DHT22;9581;49.484;8.556;2023-03-31T12:46:01;13.80;99.90
18898;DHT22;9581;49.484;8.556;2023-03-31T12:48:42;13.80;99.90
18898;DHT22;9581;49.484;8.556;2023-03-31T12:51:30;14.20;99.90
18898;DHT22;9581;49.484;8.556;2023-03-31T12:54:17;14.30;99.90
18898;DHT22;9581;49.484;8.556;2023-03-31T12:57:11;13.90;99.90
18898;DHT22;9581;49.484;8.556;2023-03-31T12:59:40;13.70;99.90
18898;DHT22;9581;49.484;8.556;2023-03-31T13:02:19;13.90;99.90
18898;DHT22;9581;49.484;8.556;2023-03-31T13:04:48;13.80;99.90
18898;DHT22;9581;49.484;8.556;2023-03-31T13:07:34;13.70;99.90
18898;DHT22;9581;49.484;8.556;2023-03-31T13:10:27;13.90;99.90
18898;DHT22;9581;49.484;8.556;2023-03-31T13:13:01;13.90;99.90
18898;DHT22;9581;49.484;8.556;2023-03-31T13:15:29;14.00;99.90
18898;DHT22;9581;49.484;8.556;2023-03-31T13:17:57;14.00;99.90
18898;DHT22;9581;49.484;8.556;2023-03-31T13:20:34;14.20;99.90
18898;DHT22;9581;49.484;8.556;2023-03-31T13:23:05;14.10;99.90
18898;DHT22;9581;49.484;8.556;2023-03-31T13:25:50;14.10;99.90
18898;DHT22;9581;49.484;8.556;2023-03-31T13:28:36;14.30;99.90
18898;DHT22;9581;49.484;8.556;2023-03-31T13:31:04;14.20;99.90
18898;DHT22;9581;49.484;8.556;2023-03-31T13:33:35;14.20;99.90
18898;DHT22;9581;49.484;8.556;2023-03-31T13:36:32;14.30;99.90
18898;DHT22;9581;49.484;8.556;2023-03-31T13:42:00;14.00;99.90
18898;DHT22;9581;49.484;8.556;2023-03-31T13:44:50;13.70;99.90
18898;DHT22;9581;49.484;8.556;2023-03-31T13:50:38;13.60;99.90
18898;DHT22;9581;49.484;8.556;2023-03-31T13:53:25;13.70;99.90
18898;DHT22;9581;49.484;8.556;2023-03-31T13:56:11;13.80;99.90
18898;DHT22;9581;49.484;8.556;2023-03-31T14:01:59;13.70;99.90
18898;DHT22;9581;49.484;8.556;2023-03-31T14:04:49;13.70;99.90
18898;DHT22;9581;49.484;8.556;2023-03-31T14:07:27;13.60;99.90
18898;DHT22;9581;49.484;8.556;2023-03-31T14:09:57;13.50;99.90
18898;DHT22;9581;49.484;8.556;2023-03-31T14:12:31;13.50;99.90
18898;DHT22;9581;49.484;8.556;2023-03-31T14:14:58;12.80;99.90
18898;DHT22;9581;49.484;8.556;2023-03-31T14:17:27;12.20;99.90
18898;DHT22;9581;49.484;8.556;2023-03-31T14:22:47;12.50;99.90
18898;DHT22;9581;49.484;8.556;2023-03-31T14:25:29;12.40;99.90
18898;DHT22;9581;49.484;8.556;2023-03-31T14:28:09;12.30;99.90
18898;DHT22;9581;49.484;8.556;2023-03-31T14:30:49;12.40;99.90
18898;DHT22;9581;49.484;8.556;2023-03-31T14:33:27;12.70;99.90
18898;DHT22;9581;49.484;8.556;2023-03-31T14:36:01;13.00;99.90
18898;DHT22;9581;49.484;8.556;2023-03-31T14:38:32;13.70;99.90
18898;DHT22;9581;49.484;8.556;2023-03-31T14:41:01;14.60;99.90
18898;DHT22;9581;49.484;8.556;2023-03-31T14:43:29;15.00;99.90
18898;DHT22;9581;49.484;8.556;2023-03-31T14:45:59;15.50;99.90
18898;DHT22;9581;49.484;8.556;2023-03-31T14:48:26;15.60;99.90
18898;DHT22;9581;49.484;8.556;2023-03-31T14:50:56;14.90;99.90
18898;DHT22;9581;49.484;8.556;2023-03-31T14:53:24;13.80;99.90
18898;DHT22;9581;49.484;8.556;2023-03-31T14:55:56;13.70;99.90
18898;DHT22;9581;49.484;8.556;2023-03-31T14:58:29;13.80;99.90
18898;DHT22;9581;49.484;8.556;2023-03-31T15:00:59;14.00;99.90
18898;DHT22;9581;49.484;8.556;2023-03-31T15:03:28;13.40;99.90
18898;DHT22;9581;49.484;8.556;2023-03-31T15:05:57;13.50;99.90
18898;DHT22;9581;49.484;8.556;2023-03-31T15:08:25;13.30;99.90
18898;DHT22;9581;49.484;8.556;2023-03-31T15:10:56;13.00;99.90
18898;DHT22;9581;49.484;8.556;2023-03-31T15:13:30;13.00;99.90
18898;DHT22;9581;49.484;8.556;2023-03-31T15:15:58;12.80;99.90
18898;DHT22;9581;49.484;8.556;2023-03-31T15:18:26;12.70;99.90
18898;DHT22;9581;49.484;8.556;2023-03-31T15:20:53;12.80;99.90
18898;DHT22;9581;49.484;8.556;2023-03-31T15:23:21;12.90;99.90
18898;DHT22;9581;49.484;8.556;2023-03-31T15:25:53;12.70;99.90
18898;DHT22;9581;49.484;8.556;2023-03-31T15:28:21;12.80;99.90
18898;DHT22;9581;49.484;8.556;2023-03-31T15:30:50;13.00;99.90
18898;DHT22;9581;49.484;8.556;2023-03-31T15:33:19;12.90;99.90
18898;DHT22;9581;49.484;8.556;2023-03-31T15:35:47;12.90;99.90
18898;DHT22;9581;49.484;8.556;2023-03-31T15:38:15;13.00;99.90
18898;DHT22;9581;49.484;8.556;2023-03-31T15:40:44;13.00;99.90
18898;DHT22;9581;49.484;8.556;2023-03-31T15:43:16;13.10;99.90
18898;DHT22;9581;49.484;8.556;2023-03-31T15:45:49;13.00;99.90
18898;DHT22;9581;49.484;8.556;2023-03-31T15:48:20;12.80;99.90
18898;DHT22;9581;49.484;8.556;2023-03-31T15:50:48;13.00;99.90
18898;DHT22;9581;49.484;8.556;2023-03-31T15:53:31;13.00;99.90
18898;DHT22;9581;49.484;8.556;2023-03-31T15:56:00;13.00;99.90
18898;DHT22;9581;49.484;8.556;2023-03-31T15:58:55;13.00;99.90
18898;DHT22;9581;49.484;8.556;2023-03-31T16:01:27;12.90;99.90
18898;DHT22;9581;49.484;8.556;2023-03-31T16:03:57;12.70;99.90
18898;DHT22;9581;49.484;8.556;2023-03-31T16:06:33;12.60;99.90
18898;DHT22;9581;49.484;8.556;2023-03-31T16:09:05;12.60;99.90
18898;DHT22;9581;49.484;8.556;2023-03-31T16:11:39;12.70;99.90
18898;DHT22;9581;49.484;8.556;2023-03-31T16:14:13;12.90;99.90
18898;DHT22;9581;49.484;8.556;2023-03-31T16:16:47;12.70;99.90
18898;DHT22;9581;49.484;8.556;2023-03-31T16:19:16;12.70;99.90
18898;DHT22;9581;49.484;8.556;2023-03-31T16:21:45;12.50;99.90
18898;DHT22;9581;49.484;8.556;2023-03-31T16:24:15;12.40;99.90
18898;DHT22;9581;49.484;8.556;2023-03-31T16:26:42;12.70;99.90
18898;DHT22;9581;49.484;8.556;2023-03-31T16:29:18;12.60;99.90